sensor_id;sensor_type;location;lat;lon;timestamp;P1;durP1;ratioP1;P2;durP2;ratioP2
83893;SDS011;73920;51.902;6.374;2023-11-19T00:00:12;14.73;;;7.15;;
83893;SDS011;73920;51.902;6.374;2023-11-19T00:05:05;13.40;;;6.35;;
83893;SDS011;73920;51.902;6.374;2023-11-19T00:07:32;15.77;;;6.95;;
83893;SDS011;73920;51.902;6.374;2023-11-19T00:09:58;19.27;;;7.87;;
83893;SDS011;73920;51.902;6.374;2023-11-19T00:12:24;17.05;;;7.95;;
83893;SDS011;73920;51.902;6.374;2023-11-19T00:14:51;17.10;;;8.45;;
83893;SDS011;73920;51.902;6.374;2023-11-19T00:17:17;22.55;;;8.60;;
83893;SDS011;73920;51.902;6.374;2023-11-19T00:19:43;17.90;;;8.68;;
83893;SDS011;73920;51.902;6.374;2023-11-19T00:22:09;19.73;;;8.40;;
83893;SDS011;73920;51.902;6.374;2023-11-19T00:24:35;18.77;;;8.07;;
83893;SDS011;73920;51.902;6.374;2023-11-19T00:27:02;17.40;;;8.18;;
83893;SDS011;73920;51.902;6.374;2023-11-19T00:29:28;17.12;;;7.22;;
83893;SDS011;73920;51.902;6.374;2023-11-19T00:31:54;21.73;;;9.45;;
83893;SDS011;73920;51.902;6.374;2023-11-19T00:34:21;16.25;;;7.28;;
83893;SDS011;73920;51.902;6.374;2023-11-19T00:36:47;17.35;;;8.18;;
83893;SDS011;73920;51.902;6.374;2023-11-19T00:39:13;13.10;;;7.05;;
83893;SDS011;73920;51.902;6.374;2023-11-19T00:41:39;15.50;;;6.78;;
83893;SDS011;73920;51.902;6.374;2023-11-19T00:44:06;14.57;;;7.07;;
83893;SDS011;73920;51.902;6.374;2023-11-19T00:46:32;11.93;;;6.35;;
83893;SDS011;73920;51.902;6.374;2023-11-19T00:48:58;13.50;;;7.00;;
83893;SDS011;73920;51.902;6.374;2023-11-19T00:51:25;15.57;;;7.03;;
83893;SDS011;73920;51.902;6.374;2023-11-19T00:53:51;16.42;;;6.78;;
83893;SDS011;73920;51.902;6.374;2023-11-19T00:56:17;18.02;;;6.70;;
83893;SDS011;73920;51.902;6.374;2023-11-19T00:58:44;16.80;;;6.82;;
83893;SDS011;73920;51.902;6.374;2023-11-19T01:01:11;17.30;;;6.57;;
83893;SDS011;73920;51.902;6.374;2023-11-19T01:03:37;13.68;;;6.28;;
83893;SDS011;73920;51.902;6.374;2023-11-19T01:06:04;17.02;;;6.32;;
83893;SDS011;73920;51.902;6.374;2023-11-19T01:10:56;14.32;;;6.62;;
83893;SDS011;73920;51.902;6.374;2023-11-19T01:13:23;13.05;;;6.30;;
83893;SDS011;73920;51.902;6.374;2023-11-19T01:15:49;15.82;;;6.82;;
83893;SDS011;73920;51.902;6.374;2023-11-19T01:18:15;17.08;;;6.70;;
83893;SDS011;73920;51.902;6.374;2023-11-19T01:20:41;22.42;;;6.00;;
83893;SDS011;73920;51.902;6.374;2023-11-19T01:23:08;13.65;;;6.22;;
83893;SDS011;73920;51.902;6.374;2023-11-19T01:25:34;19.80;;;6.57;;
83893;SDS011;73920;51.902;6.374;2023-11-19T01:28:00;14.43;;;6.15;;
83893;SDS011;73920;51.902;6.374;2023-11-19T01:30:26;12.65;;;6.15;;
83893;SDS011;73920;51.902;6.374;2023-11-19T01:32:52;18.48;;;7.07;;
83893;SDS011;73920;51.902;6.374;2023-11-19T01:35:18;20.40;;;6.32;;
83893;SDS011;73920;51.902;6.374;2023-11-19T01:37:45;13.48;;;5.93;;
83893;SDS011;73920;51.902;6.374;2023-11-19T01:40:11;16.10;;;6.50;;
83893;SDS011;73920;51.902;6.374;2023-11-19T01:42:38;14.20;;;6.72;;
83893;SDS011;73920;51.902;6.374;2023-11-19T01:45:05;19.95;;;6.75;;
83893;SDS011;73920;51.902;6.374;2023-11-19T01:47:32;19.25;;;6.07;;
83893;SDS011;73920;51.902;6.374;2023-11-19T01:50:00;19.85;;;6.10;;
83893;SDS011;73920;51.902;6.374;2023-11-19T01:52:28;15.15;;;6.22;;
83893;SDS011;73920;51.902;6.374;2023-11-19T01:54:55;13.82;;;6.07;;
83893;SDS011;73920;51.902;6.374;2023-11-19T01:57:22;18.45;;;6.22;;
83893;SDS011;73920;51.902;6.374;2023-11-19T01:59:50;15.45;;;6.45;;
83893;SDS011;73920;51.902;6.374;2023-11-19T02:02:19;15.05;;;6.60;;
83893;SDS011;73920;51.902;6.374;2023-11-19T02:04:46;16.12;;;5.87;;
83893;SDS011;73920;51.902;6.374;2023-11-19T02:07:15;13.60;;;5.87;;
83893;SDS011;73920;51.902;6.374;2023-11-19T02:09:42;15.07;;;5.93;;
83893;SDS011;73920;51.902;6.374;2023-11-19T02:12:09;12.52;;;5.80;;
83893;SDS011;73920;51.902;6.374;2023-11-19T02:14:36;17.85;;;6.20;;
83893;SDS011;73920;51.902;6.374;2023-11-19T02:17:02;18.33;;;5.82;;
83893;SDS011;73920;51.902;6.374;2023-11-19T02:19:29;18.70;;;5.93;;
83893;SDS011;73920;51.902;6.374;2023-11-19T02:21:55;13.75;;;5.18;;
83893;SDS011;73920;51.902;6.374;2023-11-19T02:24:22;16.40;;;5.43;;
83893;SDS011;73920;51.902;6.374;2023-11-19T02:29:27;13.13;;;4.55;;
83893;SDS011;73920;51.902;6.374;2023-11-19T02:31:54;15.13;;;5.20;;
83893;SDS011;73920;51.902;6.374;2023-11-19T02:34:20;13.82;;;4.60;;
83893;SDS011;73920;51.902;6.374;2023-11-19T02:36:46;15.40;;;4.40;;
83893;SDS011;73920;51.902;6.374;2023-11-19T02:39:12;18.45;;;4.70;;
83893;SDS011;73920;51.902;6.374;2023-11-19T02:41:39;18.33;;;4.45;;
83893;SDS011;73920;51.902;6.374;2023-11-19T02:44:05;17.77;;;4.45;;
83893;SDS011;73920;51.902;6.374;2023-11-19T02:46:32;19.95;;;4.70;;
83893;SDS011;73920;51.902;6.374;2023-11-19T02:48:58;18.50;;;4.30;;
83893;SDS011;73920;51.902;6.374;2023-11-19T02:51:24;13.93;;;4.05;;
83893;SDS011;73920;51.902;6.374;2023-11-19T02:53:51;14.35;;;4.03;;
83893;SDS011;73920;51.902;6.374;2023-11-19T07:39:20;26.48;;;2.65;;
83893;SDS011;73920;51.902;6.374;2023-11-19T07:41:46;29.80;;;4.87;;
83893;SDS011;73920;51.902;6.374;2023-11-19T07:44:13;19.27;;;3.40;;
83893;SDS011;73920;51.902;6.374;2023-11-19T07:46:39;26.33;;;3.42;;
83893;SDS011;73920;51.902;6.374;2023-11-19T07:49:05;22.45;;;3.78;;
83893;SDS011;73920;51.902;6.374;2023-11-19T07:51:31;23.23;;;4.53;;
83893;SDS011;73920;51.902;6.374;2023-11-19T07:53:57;19.70;;;2.70;;
83893;SDS011;73920;51.902;6.374;2023-11-19T07:56:24;29.73;;;3.72;;
83893;SDS011;73920;51.902;6.374;2023-11-19T07:58:50;26.37;;;4.80;;
83893;SDS011;73920;51.902;6.374;2023-11-19T08:01:16;19.77;;;3.65;;
83893;SDS011;73920;51.902;6.374;2023-11-19T08:03:43;21.08;;;3.80;;
83893;SDS011;73920;51.902;6.374;2023-11-19T08:06:11;30.10;;;4.45;;
83893;SDS011;73920;51.902;6.374;2023-11-19T08:08:37;26.48;;;4.82;;
83893;SDS011;73920;51.902;6.374;2023-11-19T08:11:04;28.92;;;5.07;;
83893;SDS011;73920;51.902;6.374;2023-11-19T08:13:30;28.65;;;5.70;;
83893;SDS011;73920;51.902;6.374;2023-11-19T08:15:57;21.08;;;3.53;;
83893;SDS011;73920;51.902;6.374;2023-11-19T08:18:23;29.37;;;4.12;;
83893;SDS011;73920;51.902;6.374;2023-11-19T08:20:50;26.27;;;4.10;;
83893;SDS011;73920;51.902;6.374;2023-11-19T08:23:16;25.27;;;4.25;;
83893;SDS011;73920;51.902;6.374;2023-11-19T08:25:42;25.20;;;3.95;;
83893;SDS011;73920;51.902;6.374;2023-11-19T08:28:08;17.90;;;3.65;;
83893;SDS011;73920;51.902;6.374;2023-11-19T08:30:34;15.68;;;2.95;;
83893;SDS011;73920;51.902;6.374;2023-11-19T08:33:00;28.27;;;3.75;;
83893;SDS011;73920;51.902;6.374;2023-11-19T08:35:27;18.73;;;3.28;;
83893;SDS011;73920;51.902;6.374;2023-11-19T08:37:53;27.65;;;3.45;;
83893;SDS011;73920;51.902;6.374;2023-11-19T08:40:19;20.12;;;2.92;;
83893;SDS011;73920;51.902;6.374;2023-11-19T08:42:45;26.67;;;3.20;;
83893;SDS011;73920;51.902;6.374;2023-11-19T08:45:11;25.08;;;3.45;;
83893;SDS011;73920;51.902;6.374;2023-11-19T08:47:38;21.05;;;3.42;;
83893;SDS011;73920;51.902;6.374;2023-11-19T08:50:04;21.62;;;4.37;;
83893;SDS011;73920;51.902;6.374;2023-11-19T08:54:57;18.17;;;3.00;;
83893;SDS011;73920;51.902;6.374;2023-11-19T08:57:23;22.02;;;3.37;;
83893;SDS011;73920;51.902;6.374;2023-11-19T08:59:49;22.33;;;3.65;;
83893;SDS011;73920;51.902;6.374;2023-11-19T09:02:15;27.83;;;3.47;;
83893;SDS011;73920;51.902;6.374;2023-11-19T09:04:41;14.65;;;2.85;;
83893;SDS011;73920;51.902;6.374;2023-11-19T09:07:08;19.37;;;3.53;;
83893;SDS011;73920;51.902;6.374;2023-11-19T09:09:34;21.98;;;2.95;;
83893;SDS011;73920;51.902;6.374;2023-11-19T09:12:00;14.95;;;3.40;;
83893;SDS011;73920;51.902;6.374;2023-11-19T09:14:27;19.60;;;3.50;;
83893;SDS011;73920;51.902;6.374;2023-11-19T09:16:53;18.37;;;3.87;;
83893;SDS011;73920;51.902;6.374;2023-11-19T09:19:19;30.08;;;3.60;;
83893;SDS011;73920;51.902;6.374;2023-11-19T09:21:46;24.80;;;4.28;;
83893;SDS011;73920;51.902;6.374;2023-11-19T09:24:12;22.00;;;4.05;;
83893;SDS011;73920;51.902;6.374;2023-11-19T09:26:38;20.52;;;3.30;;
83893;SDS011;73920;51.902;6.374;2023-11-19T09:29:04;19.20;;;3.28;;
83893;SDS011;73920;51.902;6.374;2023-11-19T09:31:30;24.60;;;3.78;;
83893;SDS011;73920;51.902;6.374;2023-11-19T09:33:56;20.50;;;3.28;;
83893;SDS011;73920;51.902;6.374;2023-11-19T09:36:23;21.35;;;3.87;;
83893;SDS011;73920;51.902;6.374;2023-11-19T09:38:49;23.67;;;4.12;;
83893;SDS011;73920;51.902;6.374;2023-11-19T09:41:15;18.98;;;4.03;;
83893;SDS011;73920;51.902;6.374;2023-11-19T09:43:42;28.98;;;3.72;;
83893;SDS011;73920;51.902;6.374;2023-11-19T09:46:09;23.45;;;4.20;;
83893;SDS011;73920;51.902;6.374;2023-11-19T09:48:38;18.00;;;3.15;;
83893;SDS011;73920;51.902;6.374;2023-11-19T09:51:05;21.50;;;4.00;;
83893;SDS011;73920;51.902;6.374;2023-11-19T09:53:33;22.50;;;4.37;;
83893;SDS011;73920;51.902;6.374;2023-11-19T09:56:00;22.67;;;3.70;;
83893;SDS011;73920;51.902;6.374;2023-11-19T09:58:34;21.83;;;4.57;;
83893;SDS011;73920;51.902;6.374;2023-11-19T10:01:00;19.10;;;3.37;;
83893;SDS011;73920;51.902;6.374;2023-11-19T10:03:27;18.40;;;2.80;;
83893;SDS011;73920;51.902;6.374;2023-11-19T10:05:58;20.85;;;4.40;;
83893;SDS011;73920;51.902;6.374;2023-11-19T10:08:27;19.30;;;3.08;;
83893;SDS011;73920;51.902;6.374;2023-11-19T10:10:54;21.12;;;3.53;;
83893;SDS011;73920;51.902;6.374;2023-11-19T10:13:25;22.30;;;3.58;;
83893;SDS011;73920;51.902;6.374;2023-11-19T10:15:53;24.52;;;3.78;;
83893;SDS011;73920;51.902;6.374;2023-11-19T10:18:24;23.73;;;3.87;;
83893;SDS011;73920;51.902;6.374;2023-11-19T10:20:51;21.55;;;3.28;;
83893;SDS011;73920;51.902;6.374;2023-11-19T10:23:18;21.65;;;3.58;;
83893;SDS011;73920;51.902;6.374;2023-11-19T10:25:45;20.52;;;2.40;;
83893;SDS011;73920;51.902;6.374;2023-11-19T10:28:11;22.10;;;3.62;;
83893;SDS011;73920;51.902;6.374;2023-11-19T10:30:40;17.55;;;4.53;;
83893;SDS011;73920;51.902;6.374;2023-11-19T10:33:10;23.42;;;3.42;;
83893;SDS011;73920;51.902;6.374;2023-11-19T10:38:14;23.62;;;5.45;;
83893;SDS011;73920;51.902;6.374;2023-11-19T10:40:40;24.60;;;4.93;;
83893;SDS011;73920;51.902;6.374;2023-11-19T10:43:07;19.15;;;3.17;;
83893;SDS011;73920;51.902;6.374;2023-11-19T10:48:00;18.65;;;3.53;;
83893;SDS011;73920;51.902;6.374;2023-11-19T10:50:29;22.30;;;4.78;;
83893;SDS011;73920;51.902;6.374;2023-11-19T10:52:56;16.90;;;4.20;;
83893;SDS011;73920;51.902;6.374;2023-11-19T10:55:23;25.02;;;4.80;;
83893;SDS011;73920;51.902;6.374;2023-11-19T10:57:53;18.27;;;3.75;;
83893;SDS011;73920;51.902;6.374;2023-11-19T11:00:24;26.05;;;3.20;;
83893;SDS011;73920;51.902;6.374;2023-11-19T11:02:53;17.02;;;3.37;;
83893;SDS011;73920;51.902;6.374;2023-11-19T11:05:22;21.12;;;4.82;;
83893;SDS011;73920;51.902;6.374;2023-11-19T11:07:50;21.00;;;4.00;;
83893;SDS011;73920;51.902;6.374;2023-11-19T11:10:20;19.90;;;2.97;;
83893;SDS011;73920;51.902;6.374;2023-11-19T11:12:50;21.35;;;3.70;;
83893;SDS011;73920;51.902;6.374;2023-11-19T11:15:18;18.25;;;3.40;;
83893;SDS011;73920;51.902;6.374;2023-11-19T11:20:11;21.10;;;3.70;;
83893;SDS011;73920;51.902;6.374;2023-11-19T11:22:46;20.65;;;2.62;;
83893;SDS011;73920;51.902;6.374;2023-11-19T11:25:40;17.05;;;3.75;;
83893;SDS011;73920;51.902;6.374;2023-11-19T11:28:16;20.73;;;2.80;;
83893;SDS011;73920;51.902;6.374;2023-11-19T11:30:54;18.15;;;3.22;;
83893;SDS011;73920;51.902;6.374;2023-11-19T11:38:36;16.83;;;4.43;;
83893;SDS011;73920;51.902;6.374;2023-11-19T11:48:46;18.02;;;3.25;;
83893;SDS011;73920;51.902;6.374;2023-11-19T11:51:15;24.10;;;2.67;;
83893;SDS011;73920;51.902;6.374;2023-11-19T11:53:41;16.20;;;2.85;;
83893;SDS011;73920;51.902;6.374;2023-11-19T11:56:08;18.25;;;2.75;;
83893;SDS011;73920;51.902;6.374;2023-11-19T11:58:35;18.65;;;3.42;;
83893;SDS011;73920;51.902;6.374;2023-11-19T12:01:02;18.33;;;3.08;;
83893;SDS011;73920;51.902;6.374;2023-11-19T12:03:30;23.20;;;3.70;;
83893;SDS011;73920;51.902;6.374;2023-11-19T12:05:57;20.67;;;3.10;;
83893;SDS011;73920;51.902;6.374;2023-11-19T12:08:25;22.30;;;3.70;;
83893;SDS011;73920;51.902;6.374;2023-11-19T12:10:55;17.08;;;2.72;;
83893;SDS011;73920;51.902;6.374;2023-11-19T12:13:22;14.52;;;2.47;;
83893;SDS011;73920;51.902;6.374;2023-11-19T12:18:38;22.95;;;2.70;;
83893;SDS011;73920;51.902;6.374;2023-11-19T12:21:08;12.63;;;2.40;;
83893;SDS011;73920;51.902;6.374;2023-11-19T12:23:34;13.98;;;3.45;;
83893;SDS011;73920;51.902;6.374;2023-11-19T12:26:09;11.73;;;2.28;;
83893;SDS011;73920;51.902;6.374;2023-11-19T12:31:23;21.98;;;3.45;;
83893;SDS011;73920;51.902;6.374;2023-11-19T12:33:50;10.52;;;2.33;;
83893;SDS011;73920;51.902;6.374;2023-11-19T12:36:17;22.80;;;3.95;;
83893;SDS011;73920;51.902;6.374;2023-11-19T12:38:43;15.60;;;3.40;;
83893;SDS011;73920;51.902;6.374;2023-11-19T12:41:11;22.27;;;4.50;;
83893;SDS011;73920;51.902;6.374;2023-11-19T12:43:37;28.48;;;8.52;;
83893;SDS011;73920;51.902;6.374;2023-11-19T12:48:41;15.23;;;2.97;;
83893;SDS011;73920;51.902;6.374;2023-11-19T12:51:07;16.55;;;3.10;;
83893;SDS011;73920;51.902;6.374;2023-11-19T12:53:46;13.13;;;2.95;;
83893;SDS011;73920;51.902;6.374;2023-11-19T12:56:17;18.02;;;3.75;;
83893;SDS011;73920;51.902;6.374;2023-11-19T12:58:43;15.40;;;2.80;;
83893;SDS011;73920;51.902;6.374;2023-11-19T13:01:09;16.67;;;3.20;;
83893;SDS011;73920;51.902;6.374;2023-11-19T13:03:40;12.37;;;2.92;;
83893;SDS011;73920;51.902;6.374;2023-11-19T13:06:07;14.85;;;2.17;;
83893;SDS011;73920;51.902;6.374;2023-11-19T13:08:36;18.45;;;3.22;;
83893;SDS011;73920;51.902;6.374;2023-11-19T13:11:06;18.58;;;3.12;;
83893;SDS011;73920;51.902;6.374;2023-11-19T13:13:33;8.50;;;2.12;;
83893;SDS011;73920;51.902;6.374;2023-11-19T13:16:04;13.68;;;2.90;;
83893;SDS011;73920;51.902;6.374;2023-11-19T13:20:57;10.25;;;2.15;;
83893;SDS011;73920;51.902;6.374;2023-11-19T13:23:23;16.08;;;2.42;;
83893;SDS011;73920;51.902;6.374;2023-11-19T13:25:49;12.80;;;2.53;;
83893;SDS011;73920;51.902;6.374;2023-11-19T13:28:15;15.35;;;3.00;;
83893;SDS011;73920;51.902;6.374;2023-11-19T13:30:42;12.48;;;2.62;;
83893;SDS011;73920;51.902;6.374;2023-11-19T13:33:08;17.60;;;3.03;;
83893;SDS011;73920;51.902;6.374;2023-11-19T13:35:34;13.52;;;2.90;;
83893;SDS011;73920;51.902;6.374;2023-11-19T13:38:00;13.68;;;1.85;;
83893;SDS011;73920;51.902;6.374;2023-11-19T13:40:28;15.15;;;2.70;;
83893;SDS011;73920;51.902;6.374;2023-11-19T13:42:54;8.38;;;2.00;;
83893;SDS011;73920;51.902;6.374;2023-11-19T13:45:20;13.05;;;2.12;;
83893;SDS011;73920;51.902;6.374;2023-11-19T13:47:46;12.23;;;1.98;;
83893;SDS011;73920;51.902;6.374;2023-11-19T13:50:13;12.82;;;2.67;;
83893;SDS011;73920;51.902;6.374;2023-11-19T13:52:41;13.20;;;2.40;;
83893;SDS011;73920;51.902;6.374;2023-11-19T13:55:09;14.93;;;2.35;;
83893;SDS011;73920;51.902;6.374;2023-11-19T13:57:36;18.83;;;2.42;;
83893;SDS011;73920;51.902;6.374;2023-11-19T14:00:03;14.13;;;1.92;;
83893;SDS011;73920;51.902;6.374;2023-11-19T14:02:31;12.70;;;2.72;;
83893;SDS011;73920;51.902;6.374;2023-11-19T14:04:58;14.35;;;3.22;;
83893;SDS011;73920;51.902;6.374;2023-11-19T14:07:24;15.48;;;3.37;;
83893;SDS011;73920;51.902;6.374;2023-11-19T14:09:50;15.55;;;3.72;;
83893;SDS011;73920;51.902;6.374;2023-11-19T14:12:16;15.40;;;3.65;;
83893;SDS011;73920;51.902;6.374;2023-11-19T14:14:43;12.25;;;2.17;;
83893;SDS011;73920;51.902;6.374;2023-11-19T14:17:09;14.25;;;3.25;;
83893;SDS011;73920;51.902;6.374;2023-11-19T14:19:35;11.00;;;2.10;;
83893;SDS011;73920;51.902;6.374;2023-11-19T14:22:02;15.50;;;3.75;;
83893;SDS011;73920;51.902;6.374;2023-11-19T14:24:28;12.18;;;1.98;;
83893;SDS011;73920;51.902;6.374;2023-11-19T14:26:54;9.45;;;1.90;;
83893;SDS011;73920;51.902;6.374;2023-11-19T14:29:20;11.38;;;2.17;;
83893;SDS011;73920;51.902;6.374;2023-11-19T14:31:46;13.18;;;2.92;;
83893;SDS011;73920;51.902;6.374;2023-11-19T14:34:12;14.98;;;3.12;;
83893;SDS011;73920;51.902;6.374;2023-11-19T14:36:39;13.15;;;2.65;;
83893;SDS011;73920;51.902;6.374;2023-11-19T14:39:05;18.12;;;3.00;;
83893;SDS011;73920;51.902;6.374;2023-11-19T14:41:31;13.38;;;2.60;;
83893;SDS011;73920;51.902;6.374;2023-11-19T14:43:57;19.10;;;3.17;;
83893;SDS011;73920;51.902;6.374;2023-11-19T14:46:23;14.93;;;3.17;;
83893;SDS011;73920;51.902;6.374;2023-11-19T14:48:49;14.93;;;2.78;;
83893;SDS011;73920;51.902;6.374;2023-11-19T14:51:16;12.23;;;2.95;;
83893;SDS011;73920;51.902;6.374;2023-11-19T14:53:42;14.90;;;3.40;;
83893;SDS011;73920;51.902;6.374;2023-11-19T14:56:11;14.50;;;2.15;;
83893;SDS011;73920;51.902;6.374;2023-11-19T14:58:37;18.85;;;2.92;;
83893;SDS011;73920;51.902;6.374;2023-11-19T15:01:04;13.07;;;2.87;;
83893;SDS011;73920;51.902;6.374;2023-11-19T15:03:31;15.05;;;3.58;;
83893;SDS011;73920;51.902;6.374;2023-11-19T15:05:58;14.18;;;4.87;;
83893;SDS011;73920;51.902;6.374;2023-11-19T15:08:25;15.57;;;4.70;;
83893;SDS011;73920;51.902;6.374;2023-11-19T15:10:51;15.57;;;2.92;;
83893;SDS011;73920;51.902;6.374;2023-11-19T15:13:17;15.00;;;3.25;;
83893;SDS011;73920;51.902;6.374;2023-11-19T15:15:43;11.18;;;2.70;;
83893;SDS011;73920;51.902;6.374;2023-11-19T15:18:10;11.38;;;2.47;;
83893;SDS011;73920;51.902;6.374;2023-11-19T15:20:36;17.70;;;2.58;;
83893;SDS011;73920;51.902;6.374;2023-11-19T15:23:02;13.60;;;3.10;;
83893;SDS011;73920;51.902;6.374;2023-11-19T15:25:28;10.88;;;2.12;;
83893;SDS011;73920;51.902;6.374;2023-11-19T15:27:55;17.92;;;2.90;;
83893;SDS011;73920;51.902;6.374;2023-11-19T15:30:21;9.07;;;1.75;;
83893;SDS011;73920;51.902;6.374;2023-11-19T15:32:47;11.65;;;2.42;;
83893;SDS011;73920;51.902;6.374;2023-11-19T15:35:13;9.18;;;1.73;;
83893;SDS011;73920;51.902;6.374;2023-11-19T15:37:39;9.70;;;1.10;;
83893;SDS011;73920;51.902;6.374;2023-11-19T15:40:06;7.82;;;2.35;;
83893;SDS011;73920;51.902;6.374;2023-11-19T15:42:36;3.90;;;0.90;;
83893;SDS011;73920;51.902;6.374;2023-11-19T15:45:03;4.93;;;1.60;;
83893;SDS011;73920;51.902;6.374;2023-11-19T15:47:30;7.65;;;1.17;;
83893;SDS011;73920;51.902;6.374;2023-11-19T15:49:56;6.72;;;1.35;;
83893;SDS011;73920;51.902;6.374;2023-11-19T15:52:22;9.90;;;2.90;;
83893;SDS011;73920;51.902;6.374;2023-11-19T15:54:49;8.02;;;1.62;;
83893;SDS011;73920;51.902;6.374;2023-11-19T15:57:15;8.90;;;2.42;;
83893;SDS011;73920;51.902;6.374;2023-11-19T15:59:41;12.02;;;2.87;;
83893;SDS011;73920;51.902;6.374;2023-11-19T16:02:07;11.68;;;1.87;;
83893;SDS011;73920;51.902;6.374;2023-11-19T16:04:34;6.65;;;2.33;;
83893;SDS011;73920;51.902;6.374;2023-11-19T16:07:00;13.77;;;4.05;;
83893;SDS011;73920;51.902;6.374;2023-11-19T16:09:26;11.75;;;2.80;;
83893;SDS011;73920;51.902;6.374;2023-11-19T16:11:52;12.55;;;3.70;;
83893;SDS011;73920;51.902;6.374;2023-11-19T16:14:18;15.23;;;5.25;;
83893;SDS011;73920;51.902;6.374;2023-11-19T16:16:45;14.15;;;4.70;;
83893;SDS011;73920;51.902;6.374;2023-11-19T16:19:11;15.73;;;4.35;;
83893;SDS011;73920;51.902;6.374;2023-11-19T16:21:37;22.52;;;6.28;;
83893;SDS011;73920;51.902;6.374;2023-11-19T16:24:06;16.80;;;3.90;;
83893;SDS011;73920;51.902;6.374;2023-11-19T16:26:33;20.83;;;4.20;;
83893;SDS011;73920;51.902;6.374;2023-11-19T16:28:59;12.48;;;3.45;;
83893;SDS011;73920;51.902;6.374;2023-11-19T16:31:25;15.25;;;3.25;;
83893;SDS011;73920;51.902;6.374;2023-11-19T16:33:52;14.27;;;2.90;;
83893;SDS011;73920;51.902;6.374;2023-11-19T16:36:18;13.68;;;3.97;;
83893;SDS011;73920;51.902;6.374;2023-11-19T16:38:44;11.90;;;3.20;;
83893;SDS011;73920;51.902;6.374;2023-11-19T16:41:11;15.45;;;3.10;;
83893;SDS011;73920;51.902;6.374;2023-11-19T16:43:37;12.63;;;2.40;;
83893;SDS011;73920;51.902;6.374;2023-11-19T16:46:04;19.98;;;3.15;;
83893;SDS011;73920;51.902;6.374;2023-11-19T16:48:30;25.80;;;2.95;;
83893;SDS011;73920;51.902;6.374;2023-11-19T16:50:56;18.65;;;3.33;;
83893;SDS011;73920;51.902;6.374;2023-11-19T16:53:22;12.15;;;2.85;;
83893;SDS011;73920;51.902;6.374;2023-11-19T16:55:49;13.35;;;2.97;;
83893;SDS011;73920;51.902;6.374;2023-11-19T16:58:15;18.10;;;3.92;;
83893;SDS011;73920;51.902;6.374;2023-11-19T17:00:41;20.35;;;4.87;;
83893;SDS011;73920;51.902;6.374;2023-11-19T17:03:07;18.23;;;4.75;;
83893;SDS011;73920;51.902;6.374;2023-11-19T17:05:33;19.55;;;4.00;;
83893;SDS011;73920;51.902;6.374;2023-11-19T17:08:00;10.25;;;3.37;;
83893;SDS011;73920;51.902;6.374;2023-11-19T17:10:26;17.55;;;4.07;;
83893;SDS011;73920;51.902;6.374;2023-11-19T17:12:52;12.93;;;3.60;;
83893;SDS011;73920;51.902;6.374;2023-11-19T17:15:18;14.35;;;3.60;;
83893;SDS011;73920;51.902;6.374;2023-11-19T17:17:44;11.80;;;3.80;;
83893;SDS011;73920;51.902;6.374;2023-11-19T17:20:11;14.45;;;3.00;;
83893;SDS011;73920;51.902;6.374;2023-11-19T17:22:38;12.70;;;3.00;;
83893;SDS011;73920;51.902;6.374;2023-11-19T17:25:05;14.98;;;3.55;;
83893;SDS011;73920;51.902;6.374;2023-11-19T17:27:32;13.02;;;2.95;;
83893;SDS011;73920;51.902;6.374;2023-11-19T17:29:59;30.58;;;10.75;;
83893;SDS011;73920;51.902;6.374;2023-11-19T17:32:25;10.30;;;3.12;;
83893;SDS011;73920;51.902;6.374;2023-11-19T17:34:52;14.27;;;3.45;;
83893;SDS011;73920;51.902;6.374;2023-11-19T17:37:18;8.18;;;2.60;;
83893;SDS011;73920;51.902;6.374;2023-11-19T17:39:44;16.75;;;3.37;;
83893;SDS011;73920;51.902;6.374;2023-11-19T17:44:38;16.73;;;3.20;;
83893;SDS011;73920;51.902;6.374;2023-11-19T17:47:04;10.48;;;3.58;;
83893;SDS011;73920;51.902;6.374;2023-11-19T17:49:30;9.27;;;2.97;;
83893;SDS011;73920;51.902;6.374;2023-11-19T17:51:56;18.73;;;3.42;;
83893;SDS011;73920;51.902;6.374;2023-11-19T17:54:22;13.43;;;3.62;;
83893;SDS011;73920;51.902;6.374;2023-11-19T17:56:49;12.85;;;2.75;;
83893;SDS011;73920;51.902;6.374;2023-11-19T17:59:15;10.13;;;2.30;;
83893;SDS011;73920;51.902;6.374;2023-11-19T18:01:41;8.30;;;2.87;;
83893;SDS011;73920;51.902;6.374;2023-11-19T18:04:07;10.50;;;2.70;;
83893;SDS011;73920;51.902;6.374;2023-11-19T18:06:33;13.57;;;2.90;;
83893;SDS011;73920;51.902;6.374;2023-11-19T18:09:00;13.10;;;2.72;;
83893;SDS011;73920;51.902;6.374;2023-11-19T18:11:26;10.30;;;3.00;;
83893;SDS011;73920;51.902;6.374;2023-11-19T18:13:52;11.12;;;2.60;;
83893;SDS011;73920;51.902;6.374;2023-11-19T18:16:18;9.63;;;2.50;;
83893;SDS011;73920;51.902;6.374;2023-11-19T18:18:45;9.88;;;1.80;;
83893;SDS011;73920;51.902;6.374;2023-11-19T18:21:11;9.77;;;2.30;;
83893;SDS011;73920;51.902;6.374;2023-11-19T18:23:38;10.82;;;2.28;;
83893;SDS011;73920;51.902;6.374;2023-11-19T18:26:04;11.32;;;2.62;;
83893;SDS011;73920;51.902;6.374;2023-11-19T18:28:30;11.20;;;2.45;;
83893;SDS011;73920;51.902;6.374;2023-11-19T18:30:56;9.05;;;2.70;;
83893;SDS011;73920;51.902;6.374;2023-11-19T18:33:23;8.35;;;2.67;;
83893;SDS011;73920;51.902;6.374;2023-11-19T18:35:49;13.57;;;3.60;;
83893;SDS011;73920;51.902;6.374;2023-11-19T18:38:15;9.63;;;3.10;;
83893;SDS011;73920;51.902;6.374;2023-11-19T18:40:41;13.88;;;3.40;;
83893;SDS011;73920;51.902;6.374;2023-11-19T18:43:08;13.05;;;4.18;;
83893;SDS011;73920;51.902;6.374;2023-11-19T18:45:34;15.02;;;5.65;;
83893;SDS011;73920;51.902;6.374;2023-11-19T18:48:00;11.68;;;4.07;;
83893;SDS011;73920;51.902;6.374;2023-11-19T18:50:26;12.85;;;3.00;;
83893;SDS011;73920;51.902;6.374;2023-11-19T18:52:52;14.13;;;3.20;;
83893;SDS011;73920;51.902;6.374;2023-11-19T18:55:18;12.60;;;3.78;;
83893;SDS011;73920;51.902;6.374;2023-11-19T18:57:45;12.15;;;2.42;;
83893;SDS011;73920;51.902;6.374;2023-11-19T19:00:11;15.43;;;2.80;;
83893;SDS011;73920;51.902;6.374;2023-11-19T19:02:39;16.33;;;3.65;;
83893;SDS011;73920;51.902;6.374;2023-11-19T19:05:06;9.35;;;3.08;;
83893;SDS011;73920;51.902;6.374;2023-11-19T19:07:32;19.02;;;7.15;;
83893;SDS011;73920;51.902;6.374;2023-11-19T19:09:58;11.48;;;3.42;;
83893;SDS011;73920;51.902;6.374;2023-11-19T19:12:24;12.88;;;2.72;;
83893;SDS011;73920;51.902;6.374;2023-11-19T19:14:51;11.05;;;2.60;;
83893;SDS011;73920;51.902;6.374;2023-11-19T19:17:17;15.18;;;2.78;;
83893;SDS011;73920;51.902;6.374;2023-11-19T19:19:43;10.63;;;2.30;;
83893;SDS011;73920;51.902;6.374;2023-11-19T19:22:09;9.75;;;2.60;;
83893;SDS011;73920;51.902;6.374;2023-11-19T19:24:36;16.85;;;4.28;;
83893;SDS011;73920;51.902;6.374;2023-11-19T19:27:02;11.63;;;2.12;;
83893;SDS011;73920;51.902;6.374;2023-11-19T19:29:29;10.38;;;2.30;;
83893;SDS011;73920;51.902;6.374;2023-11-19T19:31:55;7.87;;;2.20;;
83893;SDS011;73920;51.902;6.374;2023-11-19T19:34:21;9.65;;;2.40;;
83893;SDS011;73920;51.902;6.374;2023-11-19T19:36:48;7.05;;;1.98;;
83893;SDS011;73920;51.902;6.374;2023-11-19T19:39:14;10.07;;;2.62;;
83893;SDS011;73920;51.902;6.374;2023-11-19T19:41:40;6.47;;;2.17;;
83893;SDS011;73920;51.902;6.374;2023-11-19T19:44:07;11.48;;;2.47;;
83893;SDS011;73920;51.902;6.374;2023-11-19T19:46:33;5.78;;;1.83;;
83893;SDS011;73920;51.902;6.374;2023-11-19T19:49:00;5.68;;;2.25;;
83893;SDS011;73920;51.902;6.374;2023-11-19T19:51:26;4.90;;;1.85;;
83893;SDS011;73920;51.902;6.374;2023-11-19T19:53:52;7.28;;;2.50;;
83893;SDS011;73920;51.902;6.374;2023-11-19T19:56:18;7.62;;;2.47;;
83893;SDS011;73920;51.902;6.374;2023-11-19T19:58:45;7.40;;;2.05;;